createdAt,value
2023-05-19T00:00:40.914Z,0
2023-05-19T00:01:57.224Z,0
2023-05-19T00:03:13.511Z,0
2023-05-19T00:04:29.790Z,0
2023-05-19T00:05:46.080Z,0
2023-05-19T00:07:02.398Z,0
2023-05-19T00:08:18.674Z,0
2023-05-19T00:09:34.961Z,0
2023-05-19T00:10:51.250Z,0
2023-05-19T00:12:07.547Z,0
2023-05-19T00:13:23.835Z,0
2023-05-19T00:14:40.131Z,0
2023-05-19T00:15:56.427Z,0
2023-05-19T00:17:11.734Z,0
2023-05-19T00:18:28.028Z,0
2023-05-19T00:19:44.349Z,0
2023-05-19T00:21:00.627Z,0
2023-05-19T00:22:16.936Z,0
2023-05-19T00:23:33.230Z,0
2023-05-19T00:24:49.513Z,0
2023-05-19T00:26:05.000Z,0
2023-05-19T00:27:22.084Z,0
2023-05-19T00:28:38.382Z,0
2023-05-19T00:29:54.684Z,0
2023-05-19T00:31:10.966Z,0
2023-05-19T00:32:27.286Z,0
2023-05-19T00:33:42.000Z,0
2023-05-19T00:34:58.876Z,0
2023-05-19T00:36:15.000Z,0
2023-05-19T00:37:31.476Z,0
2023-05-19T00:38:47.000Z,0
2023-05-19T00:40:04.046Z,0
2023-05-19T00:41:20.333Z,0
2023-05-19T00:42:36.621Z,0
2023-05-19T00:43:52.000Z,0
2023-05-19T00:45:09.217Z,0
2023-05-19T00:46:25.516Z,0
2023-05-19T00:47:41.826Z,0
2023-05-19T00:48:58.105Z,0
2023-05-19T00:50:13.429Z,0
2023-05-19T00:51:29.709Z,0
2023-05-19T00:52:46.017Z,0
2023-05-19T00:54:02.288Z,0
2023-05-19T00:55:18.605Z,0
2023-05-19T00:56:34.869Z,0
2023-05-19T00:57:51.164Z,0
2023-05-19T00:59:07.460Z,0
2023-05-19T01:00:23.752Z,0
2023-05-19T01:01:40.053Z,0
2023-05-19T01:02:56.339Z,0
2023-05-19T01:04:12.640Z,0
2023-05-19T01:05:28.938Z,0
2023-05-19T01:06:44.000Z,0
2023-05-19T01:08:00.528Z,0
2023-05-19T01:09:16.000Z,0
2023-05-19T01:10:33.121Z,0
2023-05-19T01:11:49.421Z,0
2023-05-19T01:13:05.704Z,0
2023-05-19T01:14:22.013Z,0
2023-05-19T01:15:38.322Z,0
2023-05-19T01:16:54.602Z,0
2023-05-19T01:18:10.909Z,0
2023-05-19T01:19:27.181Z,0
2023-05-19T01:20:43.498Z,0
2023-05-19T01:21:59.781Z,0
2023-05-19T01:23:15.000Z,0
2023-05-19T01:24:31.375Z,0
2023-05-19T01:25:47.690Z,0
2023-05-19T01:27:03.954Z,0
2023-05-19T01:28:20.261Z,0
2023-05-19T01:29:36.553Z,0
2023-05-19T01:30:52.864Z,0
2023-05-19T01:32:09.141Z,0
2023-05-19T01:33:25.451Z,0
2023-05-19T01:34:41.734Z,0
2023-05-19T01:35:58.007Z,0
2023-05-19T01:37:14.312Z,0
2023-05-19T01:38:30.626Z,0
2023-05-19T01:39:45.907Z,0
2023-05-19T01:41:02.220Z,0
2023-05-19T01:42:18.000Z,0
2023-05-19T01:43:34.796Z,0
2023-05-19T01:44:51.096Z,0
2023-05-19T01:46:07.373Z,0
2023-05-19T01:47:22.000Z,0
2023-05-19T01:48:39.014Z,0
2023-05-19T01:49:55.286Z,0
2023-05-19T01:51:11.573Z,0
2023-05-19T01:52:27.881Z,0
2023-05-19T01:53:44.168Z,0
2023-05-19T01:55:00.462Z,0
2023-05-19T01:56:16.746Z,0
2023-05-19T01:57:33.049Z,0
2023-05-19T01:58:49.346Z,0
2023-05-19T02:00:05.639Z,0
2023-05-19T02:01:21.930Z,0
2023-05-19T02:02:38.000Z,0
2023-05-19T02:03:53.000Z,0
2023-05-19T02:05:09.828Z,0
2023-05-19T02:06:26.136Z,0
2023-05-19T02:07:42.422Z,0
2023-05-19T02:08:58.732Z,0
2023-05-19T02:10:15.000Z,0
2023-05-19T02:11:31.311Z,0
2023-05-19T02:12:47.593Z,0
2023-05-19T02:14:03.000Z,0
2023-05-19T02:15:20.184Z,0
2023-05-19T02:16:36.496Z,0
2023-05-19T02:17:52.000Z,0
2023-05-19T02:19:09.066Z,0
2023-05-19T02:20:24.000Z,0
2023-05-19T02:21:40.663Z,0
2023-05-19T02:22:56.963Z,0
2023-05-19T02:24:13.251Z,0
2023-05-19T02:25:29.551Z,0
2023-05-19T02:26:45.843Z,0
2023-05-19T02:28:02.156Z,0
2023-05-19T02:29:18.000Z,0
2023-05-19T02:30:34.747Z,0
2023-05-19T02:31:51.041Z,0
2023-05-19T02:33:07.335Z,0
2023-05-19T02:34:23.629Z,0
2023-05-19T02:35:39.918Z,0
2023-05-19T02:36:55.214Z,0
2023-05-19T02:38:11.503Z,0
2023-05-19T02:39:27.821Z,0
2023-05-19T02:40:44.091Z,0
2023-05-19T02:42:00.409Z,0
2023-05-19T02:43:16.000Z,0
2023-05-19T02:44:32.969Z,0
2023-05-19T02:45:49.269Z,0
2023-05-19T02:47:05.586Z,0
2023-05-19T02:48:21.795Z,0
2023-05-19T02:49:38.121Z,0
2023-05-19T02:50:54.000Z,0
2023-05-19T02:52:10.636Z,0
2023-05-19T02:53:25.903Z,0
2023-05-19T02:54:42.150Z,0
2023-05-19T02:55:58.429Z,0
2023-05-19T02:57:14.751Z,0
2023-05-19T02:58:30.988Z,0
2023-05-19T02:59:47.217Z,0
2023-05-19T03:01:03.459Z,0
2023-05-19T03:02:19.709Z,0
2023-05-19T03:03:35.942Z,0
2023-05-19T03:04:52.200Z,0
2023-05-19T03:06:08.429Z,0
2023-05-19T03:07:24.674Z,0
2023-05-19T03:08:40.907Z,0
2023-05-19T03:09:56.163Z,0
2023-05-19T03:11:12.418Z,0
2023-05-19T03:12:28.671Z,0
2023-05-19T03:13:44.898Z,0
2023-05-19T03:15:01.123Z,0
2023-05-19T03:16:17.359Z,0
2023-05-19T03:17:33.000Z,0
2023-05-19T03:18:49.850Z,0
2023-05-19T03:20:06.112Z,0
2023-05-19T03:21:22.352Z,0
2023-05-19T03:22:38.563Z,0
2023-05-19T03:23:54.805Z,0
2023-05-19T03:25:11.041Z,0
2023-05-19T03:26:26.328Z,0
2023-05-19T03:27:42.568Z,0
2023-05-19T03:28:58.779Z,0
2023-05-19T03:30:15.033Z,0
2023-05-19T03:31:31.275Z,0
2023-05-19T03:32:47.530Z,0
2023-05-19T03:34:03.770Z,0
2023-05-19T03:35:19.992Z,0
2023-05-19T03:36:36.234Z,0
2023-05-19T03:37:52.467Z,0
2023-05-19T03:39:08.000Z,0
2023-05-19T03:40:24.946Z,0
2023-05-19T03:41:41.196Z,0
2023-05-19T03:42:56.467Z,0
2023-05-19T03:44:12.000Z,0
2023-05-19T03:45:28.948Z,0
2023-05-19T03:46:45.188Z,0
2023-05-19T03:48:01.428Z,0
2023-05-19T03:49:17.648Z,0
2023-05-19T03:50:33.909Z,0
2023-05-19T03:51:50.129Z,0
2023-05-19T03:53:06.364Z,0
2023-05-19T03:54:22.000Z,0
2023-05-19T03:55:38.849Z,0
2023-05-19T03:56:55.092Z,0
2023-05-19T03:58:11.350Z,0
2023-05-19T03:59:26.579Z,0
2023-05-19T04:00:42.822Z,0
2023-05-19T04:01:59.062Z,0
2023-05-19T04:03:15.297Z,0
2023-05-19T04:04:31.539Z,0
2023-05-19T04:05:47.808Z,0
2023-05-19T04:07:04.044Z,0
2023-05-19T04:08:20.268Z,0
2023-05-19T04:09:36.505Z,0
2023-05-19T04:10:52.749Z,5
2023-05-19T04:12:09.000Z,5
2023-05-19T04:13:25.220Z,5
2023-05-19T04:14:41.459Z,5
2023-05-19T04:15:56.732Z,5
2023-05-19T04:17:12.976Z,5
2023-05-19T04:18:29.206Z,5
2023-05-19T04:19:45.450Z,5
2023-05-19T04:21:01.706Z,5
2023-05-19T04:22:17.925Z,5
2023-05-19T04:23:34.159Z,5
2023-05-19T04:24:50.398Z,5
2023-05-19T04:26:06.000Z,5
2023-05-19T04:27:22.880Z,5
2023-05-19T04:28:39.119Z,5
2023-05-19T04:29:55.369Z,11
2023-05-19T04:31:11.602Z,11
2023-05-19T04:32:26.856Z,11
2023-05-19T04:33:43.095Z,11
2023-05-19T04:34:59.344Z,11
2023-05-19T04:36:15.605Z,11
2023-05-19T04:37:31.822Z,11
2023-05-19T04:38:48.059Z,11
2023-05-19T04:40:04.297Z,11
2023-05-19T04:41:20.545Z,11
2023-05-19T04:42:36.780Z,11
2023-05-19T04:43:53.016Z,16
2023-05-19T04:45:09.273Z,16
2023-05-19T04:46:25.504Z,16
2023-05-19T04:47:41.736Z,16
2023-05-19T04:48:56.996Z,16
2023-05-19T04:50:13.232Z,16
2023-05-19T04:51:29.471Z,16
2023-05-19T04:52:45.717Z,16
2023-05-19T04:54:01.951Z,16
2023-05-19T04:55:18.217Z,16
2023-05-19T04:56:34.445Z,16
2023-05-19T04:57:50.672Z,16
2023-05-19T04:59:06.924Z,16
2023-05-19T05:00:23.156Z,22
2023-05-19T05:01:39.394Z,22
2023-05-19T05:02:55.631Z,22
2023-05-19T05:04:11.879Z,22
2023-05-19T05:05:27.150Z,22
2023-05-19T05:06:43.378Z,22
2023-05-19T05:07:59.604Z,22
2023-05-19T05:09:15.859Z,22
2023-05-19T05:10:32.089Z,22
2023-05-19T05:11:48.336Z,22
2023-05-19T05:13:04.566Z,22
2023-05-19T05:14:20.817Z,22
2023-05-19T05:15:37.055Z,28
2023-05-19T05:16:53.296Z,28
2023-05-19T05:18:09.526Z,28
2023-05-19T05:19:25.779Z,28
2023-05-19T05:20:42.021Z,28
2023-05-19T05:21:57.275Z,28
2023-05-19T05:23:13.500Z,28
2023-05-19T05:24:29.753Z,28
2023-05-19T05:25:45.986Z,28
2023-05-19T05:27:02.218Z,28
2023-05-19T05:28:18.463Z,28
2023-05-19T05:29:34.729Z,28
2023-05-19T05:30:50.939Z,33
2023-05-19T05:32:07.199Z,33
2023-05-19T05:33:23.426Z,33
2023-05-19T05:34:39.000Z,33
2023-05-19T05:35:55.904Z,33
2023-05-19T05:37:12.147Z,33
2023-05-19T05:38:27.395Z,33
2023-05-19T05:39:43.000Z,33
2023-05-19T05:40:59.877Z,33
2023-05-19T05:42:16.108Z,33
2023-05-19T05:43:32.354Z,33
2023-05-19T05:44:48.618Z,33
2023-05-19T05:46:04.840Z,33
2023-05-19T05:47:21.071Z,33
2023-05-19T05:48:37.322Z,33
2023-05-19T05:49:53.560Z,33
2023-05-19T05:51:09.000Z,33
2023-05-19T05:52:26.038Z,33
2023-05-19T05:53:42.266Z,33
2023-05-19T05:54:57.525Z,33
2023-05-19T05:56:13.757Z,39
2023-05-19T05:57:30.006Z,39
2023-05-19T05:58:46.251Z,39
2023-05-19T06:00:02.508Z,39
2023-05-19T06:01:18.730Z,39
2023-05-19T06:02:33.983Z,39
2023-05-19T06:03:50.237Z,39
2023-05-19T06:05:06.466Z,39
2023-05-19T06:06:22.700Z,39
2023-05-19T06:07:38.000Z,39
2023-05-19T06:08:55.188Z,39
2023-05-19T06:10:11.415Z,39
2023-05-19T06:11:27.000Z,39
2023-05-19T06:12:43.922Z,39
2023-05-19T06:14:00.147Z,45
2023-05-19T06:15:16.394Z,45
2023-05-19T06:16:32.627Z,45
2023-05-19T06:17:48.866Z,45
2023-05-19T06:19:04.133Z,45
2023-05-19T06:20:20.372Z,45
2023-05-19T06:21:36.593Z,45
2023-05-19T06:22:52.851Z,45
2023-05-19T06:24:09.000Z,45
2023-05-19T06:25:25.329Z,45
2023-05-19T06:26:41.537Z,45
2023-05-19T06:27:57.782Z,45
2023-05-19T06:29:14.000Z,45
2023-05-19T06:30:30.274Z,45
2023-05-19T06:31:46.492Z,45
2023-05-19T06:33:02.746Z,45
2023-05-19T06:34:18.980Z,45
2023-05-19T06:35:34.231Z,45
2023-05-19T06:36:50.464Z,45
2023-05-19T06:38:06.719Z,39
2023-05-19T06:39:22.962Z,39
2023-05-19T06:40:39.183Z,39
2023-05-19T06:41:55.422Z,39
2023-05-19T06:43:11.671Z,45
2023-05-19T06:44:27.900Z,45
2023-05-19T06:45:44.133Z,45
2023-05-19T06:47:00.388Z,45
2023-05-19T06:48:16.614Z,45
2023-05-19T06:49:32.863Z,45
2023-05-19T06:50:49.094Z,45
2023-05-19T06:52:04.376Z,45
2023-05-19T06:53:20.595Z,45
2023-05-19T06:54:36.837Z,45
2023-05-19T06:55:53.057Z,45
2023-05-19T06:57:09.301Z,45
2023-05-19T06:58:25.542Z,45
2023-05-19T06:59:41.785Z,45
2023-05-19T07:00:58.021Z,45
2023-05-19T07:02:14.269Z,45
2023-05-19T07:03:30.505Z,45
2023-05-19T07:04:46.740Z,45
2023-05-19T07:06:03.001Z,45
2023-05-19T07:07:19.221Z,45
2023-05-19T07:08:34.494Z,45
2023-05-19T07:09:50.728Z,45
2023-05-19T07:11:06.948Z,45
2023-05-19T07:12:23.201Z,45
2023-05-19T07:13:39.418Z,50
2023-05-19T07:14:55.672Z,45
2023-05-19T07:16:11.893Z,45
2023-05-19T07:17:28.000Z,45
2023-05-19T07:18:44.000Z,50
2023-05-19T07:20:00.613Z,50
2023-05-19T07:21:16.000Z,56
2023-05-19T07:22:33.111Z,50
2023-05-19T07:23:49.358Z,50
2023-05-19T07:25:05.689Z,50
2023-05-19T07:26:21.929Z,50
2023-05-19T07:27:38.174Z,50
2023-05-19T07:28:54.412Z,50
2023-05-19T07:30:10.657Z,50
2023-05-19T07:31:26.896Z,45
2023-05-19T07:32:43.120Z,45
2023-05-19T07:33:59.389Z,45
2023-05-19T07:35:15.000Z,45
2023-05-19T07:36:31.853Z,45
2023-05-19T07:37:48.106Z,45
2023-05-19T07:39:04.345Z,45
2023-05-19T07:40:20.567Z,45
2023-05-19T07:41:35.817Z,45
2023-05-19T07:42:52.049Z,45
2023-05-19T07:44:08.316Z,45
2023-05-19T07:45:24.529Z,45
2023-05-19T07:46:40.760Z,45
2023-05-19T07:47:57.035Z,50
2023-05-19T07:49:13.273Z,50
2023-05-19T07:50:29.476Z,50
2023-05-19T07:51:45.739Z,45
2023-05-19T07:53:01.962Z,45
2023-05-19T07:54:18.193Z,50
2023-05-19T07:55:34.440Z,50
2023-05-19T07:56:50.673Z,50
2023-05-19T07:58:05.932Z,56
2023-05-19T07:59:22.197Z,56
2023-05-19T08:00:38.420Z,50
2023-05-19T08:01:54.665Z,45
2023-05-19T08:03:10.881Z,45
2023-05-19T08:04:27.123Z,56
2023-05-19T08:05:43.373Z,56
2023-05-19T08:06:59.607Z,50
2023-05-19T08:08:15.855Z,45
2023-05-19T08:09:32.107Z,50
2023-05-19T08:10:48.000Z,56
2023-05-19T08:12:04.000Z,50
2023-05-19T08:13:20.815Z,50
2023-05-19T08:14:36.064Z,61
2023-05-19T08:15:52.284Z,50
2023-05-19T08:17:08.529Z,56
2023-05-19T08:18:24.000Z,61
2023-05-19T08:19:41.016Z,61
2023-05-19T08:20:57.256Z,56
2023-05-19T08:22:13.476Z,61
2023-05-19T08:23:29.723Z,56
2023-05-19T08:24:45.964Z,50
2023-05-19T08:26:02.194Z,50
2023-05-19T08:27:18.454Z,50
2023-05-19T08:28:34.693Z,50
2023-05-19T08:29:50.913Z,67
2023-05-19T08:31:06.195Z,67
2023-05-19T08:32:22.414Z,61
2023-05-19T08:33:38.651Z,73
2023-05-19T08:34:54.913Z,73
2023-05-19T08:36:11.123Z,73
2023-05-19T08:37:27.385Z,73
2023-05-19T08:38:43.618Z,73
2023-05-19T08:39:59.854Z,73
2023-05-19T08:41:16.079Z,67
2023-05-19T08:42:32.339Z,67
2023-05-19T08:43:48.587Z,73
2023-05-19T08:45:04.000Z,67
2023-05-19T08:46:21.051Z,61
2023-05-19T08:47:36.289Z,67
2023-05-19T08:48:52.530Z,73
2023-05-19T08:50:08.797Z,73
2023-05-19T08:51:25.010Z,73
2023-05-19T08:52:41.257Z,73
2023-05-19T08:53:57.484Z,73
2023-05-19T08:55:13.736Z,73
2023-05-19T08:56:29.975Z,73
2023-05-19T08:57:46.000Z,73
2023-05-19T08:59:02.437Z,78
2023-05-19T09:00:18.685Z,73
2023-05-19T09:01:34.920Z,67
2023-05-19T09:02:51.156Z,67
2023-05-19T09:04:06.439Z,73
2023-05-19T09:05:22.661Z,73
2023-05-19T09:06:38.929Z,73
2023-05-19T09:07:55.130Z,73
2023-05-19T09:09:11.395Z,67
2023-05-19T09:10:27.606Z,67
2023-05-19T09:11:43.867Z,67
2023-05-19T09:13:00.088Z,67
2023-05-19T09:14:16.325Z,67
2023-05-19T09:15:32.559Z,73
2023-05-19T09:16:48.794Z,73
2023-05-19T09:18:05.062Z,73
2023-05-19T09:19:21.272Z,67
2023-05-19T09:20:36.553Z,67
2023-05-19T09:21:52.764Z,73
2023-05-19T09:23:09.024Z,73
2023-05-19T09:24:25.244Z,78
2023-05-19T09:25:41.503Z,73
2023-05-19T09:26:57.721Z,73
2023-05-19T09:28:13.985Z,73
2023-05-19T09:29:30.205Z,73
2023-05-19T09:30:46.444Z,73
2023-05-19T09:32:02.677Z,73
2023-05-19T09:33:18.914Z,78
2023-05-19T09:34:35.164Z,84
2023-05-19T09:35:51.424Z,90
2023-05-19T09:37:06.679Z,90
2023-05-19T09:38:22.900Z,101
2023-05-19T09:39:39.142Z,95
2023-05-19T09:40:55.381Z,90
2023-05-19T09:42:11.599Z,90
2023-05-19T09:43:27.858Z,90
2023-05-19T09:44:44.113Z,84
2023-05-19T09:46:00.317Z,84
2023-05-19T09:47:16.576Z,84
2023-05-19T09:48:32.793Z,84
2023-05-19T09:49:49.036Z,78
2023-05-19T09:51:05.276Z,78
2023-05-19T09:52:21.524Z,78
2023-05-19T09:53:36.000Z,78
2023-05-19T09:54:53.039Z,78
2023-05-19T09:56:09.264Z,73
2023-05-19T09:57:25.510Z,73
2023-05-19T09:58:41.733Z,73
2023-05-19T09:59:57.970Z,73
2023-05-19T10:01:14.233Z,73
2023-05-19T10:02:30.475Z,61
2023-05-19T10:03:46.711Z,78
2023-05-19T10:05:02.933Z,78
2023-05-19T10:06:19.183Z,78
2023-05-19T10:07:35.394Z,78
2023-05-19T10:08:51.632Z,78
2023-05-19T10:10:06.924Z,78
2023-05-19T10:11:23.137Z,78
2023-05-19T10:12:39.400Z,78
2023-05-19T10:13:55.634Z,78
2023-05-19T10:15:11.853Z,78
2023-05-19T10:16:28.106Z,67
2023-05-19T10:17:43.343Z,84
2023-05-19T10:18:59.606Z,84
2023-05-19T10:20:15.836Z,95
2023-05-19T10:21:32.060Z,106
2023-05-19T10:22:48.338Z,118
2023-05-19T10:24:04.000Z,118
2023-05-19T10:25:20.778Z,123
2023-05-19T10:26:37.020Z,118
2023-05-19T10:27:53.289Z,123
2023-05-19T10:29:09.528Z,123
2023-05-19T10:30:25.742Z,140
2023-05-19T10:31:41.980Z,146
2023-05-19T10:32:58.215Z,140
2023-05-19T10:34:13.476Z,140
2023-05-19T10:35:29.707Z,146
2023-05-19T10:36:45.973Z,163
2023-05-19T10:38:02.208Z,163
2023-05-19T10:39:18.433Z,163
2023-05-19T10:40:34.000Z,163
2023-05-19T10:41:50.910Z,146
2023-05-19T10:43:07.140Z,140
2023-05-19T10:44:23.397Z,146
2023-05-19T10:45:39.636Z,129
2023-05-19T10:46:55.893Z,129
2023-05-19T10:48:12.133Z,112
2023-05-19T10:49:28.370Z,118
2023-05-19T10:50:43.596Z,112
2023-05-19T10:51:59.844Z,106
2023-05-19T10:53:16.085Z,123
2023-05-19T10:54:32.319Z,123
2023-05-19T10:55:48.579Z,129
2023-05-19T10:57:04.802Z,202
2023-05-19T10:58:21.042Z,135
2023-05-19T10:59:37.281Z,129
2023-05-19T11:00:53.545Z,140
2023-05-19T11:02:09.758Z,135
2023-05-19T11:03:25.997Z,129
2023-05-19T11:04:42.264Z,135
2023-05-19T11:05:58.477Z,129
2023-05-19T11:07:13.729Z,118
2023-05-19T11:08:29.970Z,112
2023-05-19T11:09:46.219Z,101
2023-05-19T11:11:02.455Z,101
2023-05-19T11:12:18.713Z,101
2023-05-19T11:13:34.000Z,118
2023-05-19T11:14:51.190Z,129
2023-05-19T11:16:07.429Z,135
2023-05-19T11:17:23.643Z,140
2023-05-19T11:18:39.917Z,140
2023-05-19T11:19:56.129Z,135
2023-05-19T11:21:12.401Z,146
2023-05-19T11:22:28.606Z,180
2023-05-19T11:23:43.857Z,180
2023-05-19T11:25:00.114Z,225
2023-05-19T11:26:16.350Z,157
2023-05-19T11:27:32.578Z,140
2023-05-19T11:28:48.818Z,163
2023-05-19T11:30:05.087Z,174
2023-05-19T11:31:21.305Z,168
2023-05-19T11:32:37.571Z,191
2023-05-19T11:33:53.792Z,196
2023-05-19T11:35:10.042Z,213
2023-05-19T11:36:26.268Z,208
2023-05-19T11:37:42.516Z,135
2023-05-19T11:38:58.762Z,140
2023-05-19T11:40:14.028Z,129
2023-05-19T11:41:30.236Z,135
2023-05-19T11:42:46.506Z,146
2023-05-19T11:44:02.728Z,146
2023-05-19T11:45:18.959Z,202
2023-05-19T11:46:35.206Z,258
2023-05-19T11:47:51.453Z,264
2023-05-19T11:49:07.701Z,281
2023-05-19T11:50:23.953Z,236
2023-05-19T11:51:40.159Z,208
2023-05-19T11:52:56.414Z,174
2023-05-19T11:54:12.637Z,230
2023-05-19T11:55:28.892Z,168
2023-05-19T11:56:44.150Z,163
2023-05-19T11:58:00.399Z,140
2023-05-19T11:59:16.614Z,343
2023-05-19T12:00:32.856Z,230
2023-05-19T12:01:49.103Z,258
2023-05-19T12:03:05.345Z,180
2023-05-19T12:04:21.584Z,309
2023-05-19T12:05:37.822Z,292
2023-05-19T12:06:54.062Z,123
2023-05-19T12:08:10.321Z,135
2023-05-19T12:09:26.540Z,185
2023-05-19T12:10:42.775Z,168
2023-05-19T12:11:59.043Z,219
2023-05-19T12:13:14.303Z,191
2023-05-19T12:14:30.533Z,129
2023-05-19T12:15:46.749Z,292
2023-05-19T12:17:03.024Z,303
2023-05-19T12:18:19.237Z,275
2023-05-19T12:19:35.497Z,275
2023-05-19T12:20:51.744Z,292
2023-05-19T12:22:07.952Z,281
2023-05-19T12:23:24.182Z,286
2023-05-19T12:24:40.423Z,225
2023-05-19T12:25:56.673Z,208
2023-05-19T12:27:12.911Z,286
2023-05-19T12:28:29.148Z,275
2023-05-19T12:29:44.403Z,236
2023-05-19T12:31:00.670Z,174
2023-05-19T12:32:16.908Z,225
2023-05-19T12:33:33.130Z,270
2023-05-19T12:34:49.360Z,180
2023-05-19T12:36:05.600Z,213
2023-05-19T12:37:21.861Z,191
2023-05-19T12:38:38.079Z,168
2023-05-19T12:39:54.320Z,230
2023-05-19T12:41:10.000Z,320
2023-05-19T12:42:26.803Z,315
2023-05-19T12:43:43.040Z,264
2023-05-19T12:44:59.279Z,163
2023-05-19T12:46:14.529Z,281
2023-05-19T12:47:30.759Z,123
2023-05-19T12:48:47.015Z,281
2023-05-19T12:50:03.245Z,163
2023-05-19T12:51:19.480Z,118
2023-05-19T12:52:35.733Z,118
2023-05-19T12:53:51.958Z,129
2023-05-19T12:55:08.234Z,146
2023-05-19T12:56:24.439Z,191
2023-05-19T12:57:40.681Z,230
2023-05-19T12:58:56.949Z,225
2023-05-19T13:00:13.162Z,208
2023-05-19T13:01:29.396Z,196
2023-05-19T13:02:44.655Z,146
2023-05-19T13:04:00.919Z,146
2023-05-19T13:05:17.163Z,140
2023-05-19T13:06:33.373Z,174
2023-05-19T13:07:49.615Z,168
2023-05-19T13:09:05.880Z,168
2023-05-19T13:10:22.131Z,151
2023-05-19T13:11:38.326Z,118
2023-05-19T13:12:54.596Z,202
2023-05-19T13:14:10.818Z,196
2023-05-19T13:15:27.082Z,208
2023-05-19T13:16:43.294Z,213
2023-05-19T13:17:59.527Z,163
2023-05-19T13:19:14.781Z,247
2023-05-19T13:20:31.022Z,213
2023-05-19T13:21:47.258Z,185
2023-05-19T13:23:03.513Z,106
2023-05-19T13:24:19.736Z,95
2023-05-19T13:25:35.984Z,95
2023-05-19T13:26:52.213Z,275
2023-05-19T13:28:08.470Z,270
2023-05-19T13:29:24.724Z,275
2023-05-19T13:30:40.948Z,270
2023-05-19T13:31:57.171Z,129
2023-05-19T13:33:13.443Z,241
2023-05-19T13:34:29.669Z,298
2023-05-19T13:35:44.906Z,298
2023-05-19T13:37:01.155Z,286
2023-05-19T13:38:17.402Z,281
2023-05-19T13:39:33.625Z,286
2023-05-19T13:40:49.864Z,292
2023-05-19T13:42:06.000Z,298
2023-05-19T13:43:22.345Z,151
2023-05-19T13:44:38.596Z,123
2023-05-19T13:45:54.833Z,264
2023-05-19T13:47:11.073Z,95
2023-05-19T13:48:27.299Z,292
2023-05-19T13:49:43.552Z,106
2023-05-19T13:50:59.792Z,303
2023-05-19T13:52:15.038Z,118
2023-05-19T13:53:31.304Z,286
2023-05-19T13:54:47.544Z,315
2023-05-19T13:56:03.764Z,298
2023-05-19T13:57:20.032Z,241
2023-05-19T13:58:36.244Z,236
2023-05-19T13:59:52.473Z,281
2023-05-19T14:01:08.713Z,275
2023-05-19T14:02:24.961Z,270
2023-05-19T14:03:41.189Z,270
2023-05-19T14:04:57.430Z,106
2023-05-19T14:06:13.703Z,118
2023-05-19T14:07:29.942Z,129
2023-05-19T14:08:45.173Z,101
2023-05-19T14:10:01.000Z,84
2023-05-19T14:11:17.641Z,78
2023-05-19T14:12:33.890Z,84
2023-05-19T14:13:50.121Z,146
2023-05-19T14:15:06.395Z,202
2023-05-19T14:16:22.607Z,264
2023-05-19T14:17:38.848Z,241
2023-05-19T14:18:55.114Z,303
2023-05-19T14:20:11.322Z,309
2023-05-19T14:21:27.561Z,303
2023-05-19T14:22:43.796Z,112
2023-05-19T14:24:00.078Z,303
2023-05-19T14:25:15.298Z,303
2023-05-19T14:26:31.530Z,303
2023-05-19T14:27:47.784Z,315
2023-05-19T14:29:04.018Z,309
2023-05-19T14:30:20.262Z,315
2023-05-19T14:31:36.489Z,315
2023-05-19T14:32:51.752Z,309
2023-05-19T14:34:08.028Z,315
2023-05-19T14:35:24.227Z,320
2023-05-19T14:36:40.465Z,320
2023-05-19T14:37:56.714Z,326
2023-05-19T14:39:12.982Z,331
2023-05-19T14:40:29.217Z,135
2023-05-19T14:41:45.425Z,320
2023-05-19T14:43:01.664Z,315
2023-05-19T14:44:17.902Z,303
2023-05-19T14:45:34.147Z,315
2023-05-19T14:46:50.416Z,315
2023-05-19T14:48:06.656Z,326
2023-05-19T14:49:21.875Z,196
2023-05-19T14:50:38.146Z,112
2023-05-19T14:51:54.361Z,202
2023-05-19T14:53:10.597Z,326
2023-05-19T14:54:26.834Z,202
2023-05-19T14:55:43.068Z,315
2023-05-19T14:56:59.312Z,337
2023-05-19T14:58:15.544Z,213
2023-05-19T14:59:31.787Z,118
2023-05-19T15:00:48.057Z,275
2023-05-19T15:02:04.296Z,253
2023-05-19T15:03:20.503Z,157
2023-05-19T15:04:36.755Z,112
2023-05-19T15:05:51.999Z,123
2023-05-19T15:07:08.241Z,129
2023-05-19T15:08:24.477Z,129
2023-05-19T15:09:40.728Z,123
2023-05-19T15:10:56.000Z,101
2023-05-19T15:12:13.199Z,112
2023-05-19T15:13:29.444Z,95
2023-05-19T15:14:45.709Z,101
2023-05-19T15:16:01.914Z,101
2023-05-19T15:17:18.181Z,118
2023-05-19T15:18:34.391Z,146
2023-05-19T15:19:50.639Z,185
2023-05-19T15:21:06.913Z,180
2023-05-19T15:22:23.257Z,146
2023-05-19T15:23:39.499Z,123
2023-05-19T15:24:55.706Z,118
2023-05-19T15:26:11.982Z,118
2023-05-19T15:27:28.190Z,146
2023-05-19T15:28:44.434Z,101
2023-05-19T15:30:00.699Z,90
2023-05-19T15:31:16.932Z,95
2023-05-19T15:32:33.136Z,95
2023-05-19T15:33:49.410Z,95
2023-05-19T15:35:05.000Z,95
2023-05-19T15:36:21.861Z,95
2023-05-19T15:37:38.100Z,140
2023-05-19T15:38:53.347Z,163
2023-05-19T15:40:09.637Z,213
2023-05-19T15:41:25.831Z,225
2023-05-19T15:42:42.105Z,196
2023-05-19T15:43:58.312Z,185
2023-05-19T15:45:14.543Z,196
2023-05-19T15:46:30.784Z,95
2023-05-19T15:47:47.059Z,78
2023-05-19T15:49:03.264Z,78
2023-05-19T15:50:19.502Z,90
2023-05-19T15:51:35.000Z,90
2023-05-19T15:52:51.995Z,123
2023-05-19T15:54:08.227Z,73
2023-05-19T15:55:23.476Z,95
2023-05-19T15:56:39.763Z,84
2023-05-19T15:57:55.993Z,135
2023-05-19T15:59:12.199Z,135
2023-05-19T16:00:28.444Z,151
2023-05-19T16:01:44.707Z,157
2023-05-19T16:03:00.907Z,140
2023-05-19T16:04:17.186Z,129
2023-05-19T16:05:33.391Z,118
2023-05-19T16:06:49.632Z,118
2023-05-19T16:08:05.872Z,118
2023-05-19T16:09:22.113Z,90
2023-05-19T16:10:38.353Z,95
2023-05-19T16:11:53.614Z,112
2023-05-19T16:13:09.879Z,101
2023-05-19T16:14:26.000Z,106
2023-05-19T16:15:42.319Z,129
2023-05-19T16:16:58.563Z,168
2023-05-19T16:18:14.816Z,163
2023-05-19T16:19:31.045Z,208
2023-05-19T16:20:47.292Z,213
2023-05-19T16:22:03.531Z,208
2023-05-19T16:23:19.756Z,151
2023-05-19T16:24:36.032Z,202
2023-05-19T16:25:52.238Z,236
2023-05-19T16:27:08.489Z,180
2023-05-19T16:28:23.733Z,73
2023-05-19T16:29:39.967Z,61
2023-05-19T16:30:56.224Z,56
2023-05-19T16:32:12.489Z,50
2023-05-19T16:33:28.691Z,50
2023-05-19T16:34:44.940Z,50
2023-05-19T16:36:01.165Z,50
2023-05-19T16:37:17.411Z,50
2023-05-19T16:38:33.654Z,50
2023-05-19T16:39:49.893Z,84
2023-05-19T16:41:06.130Z,84
2023-05-19T16:42:22.410Z,84
2023-05-19T16:43:38.619Z,56
2023-05-19T16:44:53.906Z,50
2023-05-19T16:46:10.118Z,50
2023-05-19T16:47:26.389Z,56
2023-05-19T16:48:42.626Z,73
2023-05-19T16:49:58.823Z,123
2023-05-19T16:51:15.064Z,112
2023-05-19T16:52:31.302Z,106
2023-05-19T16:53:47.542Z,84
2023-05-19T16:55:03.835Z,84
2023-05-19T16:56:20.070Z,78
2023-05-19T16:57:36.308Z,67
2023-05-19T16:58:52.516Z,45
2023-05-19T17:00:08.746Z,45
2023-05-19T17:01:24.040Z,45
2023-05-19T17:02:40.239Z,61
2023-05-19T17:03:56.000Z,67
2023-05-19T17:05:12.752Z,95
2023-05-19T17:06:29.012Z,106
2023-05-19T17:07:45.197Z,78
2023-05-19T17:09:01.477Z,73
2023-05-19T17:10:17.716Z,73
2023-05-19T17:11:33.919Z,84
2023-05-19T17:12:50.199Z,106
2023-05-19T17:14:06.403Z,118
2023-05-19T17:15:22.655Z,106
2023-05-19T17:16:38.917Z,95
2023-05-19T17:17:54.146Z,84
2023-05-19T17:19:10.372Z,78
2023-05-19T17:20:26.623Z,73
2023-05-19T17:21:42.862Z,61
2023-05-19T17:22:59.102Z,56
2023-05-19T17:24:15.333Z,45
2023-05-19T17:25:31.578Z,45
2023-05-19T17:26:47.812Z,45
2023-05-19T17:28:04.106Z,45
2023-05-19T17:29:20.291Z,39
2023-05-19T17:30:36.532Z,39
2023-05-19T17:31:52.826Z,39
2023-05-19T17:33:09.041Z,39
2023-05-19T17:34:24.325Z,39
2023-05-19T17:35:40.531Z,45
2023-05-19T17:36:56.000Z,56
2023-05-19T17:38:13.017Z,56
2023-05-19T17:39:29.258Z,56
2023-05-19T17:40:45.484Z,50
2023-05-19T17:42:01.733Z,45
2023-05-19T17:43:17.967Z,39
2023-05-19T17:44:34.209Z,39
2023-05-19T17:45:50.454Z,39
2023-05-19T17:47:06.733Z,39
2023-05-19T17:48:22.942Z,39
2023-05-19T17:49:39.171Z,39
2023-05-19T17:50:54.457Z,33
2023-05-19T17:52:10.673Z,39
2023-05-19T17:53:26.946Z,33
2023-05-19T17:54:43.157Z,33
2023-05-19T17:55:59.425Z,33
2023-05-19T17:57:15.666Z,33
2023-05-19T17:58:31.877Z,33
2023-05-19T17:59:48.105Z,28
2023-05-19T18:01:04.345Z,28
2023-05-19T18:02:20.581Z,28
2023-05-19T18:03:36.865Z,28